createdAt,value
2018-01-15T00:00:16.850Z,72.30
2018-01-15T00:02:51.193Z,72.50
2018-01-15T00:05:25.897Z,73.10
2018-01-15T00:07:59.894Z,72.50
2018-01-15T00:10:34.455Z,72.60
2018-01-15T00:13:08.297Z,72.70
2018-01-15T00:15:42.441Z,72.90
2018-01-15T00:18:16.139Z,73.00
2018-01-15T00:20:49.987Z,72.90
2018-01-15T00:23:23.675Z,72.80
2018-01-15T00:25:58.419Z,73.10
2018-01-15T00:28:32.515Z,73.10
2018-01-15T00:31:06.349Z,73.20
2018-01-15T00:33:40.289Z,73.30
2018-01-15T00:36:14.139Z,73.20
2018-01-15T00:38:48.567Z,73.90
2018-01-15T00:41:22.390Z,73.30
2018-01-15T00:43:56.042Z,73.30
2018-01-15T00:46:30.539Z,73.40
2018-01-15T00:49:04.977Z,73.40
2018-01-15T00:51:38.998Z,73.30
2018-01-15T00:54:13.535Z,73.30
2018-01-15T00:56:48.235Z,73.30
2018-01-15T00:59:22.306Z,73.30
2018-01-15T01:01:56.083Z,72.60
2018-01-15T01:04:29.752Z,72.60
2018-01-15T01:07:04.403Z,73.20
2018-01-15T01:09:38.268Z,72.70
2018-01-15T01:12:12.116Z,73.20
2018-01-15T01:14:46.037Z,73.00
2018-01-15T01:17:20.536Z,73.00
2018-01-15T01:19:54.654Z,73.00
2018-01-15T01:22:28.601Z,72.40
2018-01-15T01:25:02.503Z,72.30
2018-01-15T01:27:36.072Z,72.30
2018-01-15T01:30:10.068Z,72.20
2018-01-15T01:32:43.904Z,72.20
2018-01-15T01:35:18.379Z,72.10
2018-01-15T01:37:52.558Z,72.20
2018-01-15T01:40:26.460Z,72.30
2018-01-15T01:43:00.372Z,72.30
2018-01-15T01:45:34.205Z,72.30
2018-01-15T01:48:09.431Z,72.60
2018-01-15T01:50:43.865Z,72.30
2018-01-15T01:53:18.293Z,72.20
2018-01-15T01:55:52.152Z,72.40
2018-01-15T01:58:26.134Z,72.30
2018-01-15T02:01:00.554Z,72.20
2018-01-15T02:03:34.245Z,72.20
2018-01-15T02:06:08.027Z,72.70
2018-01-15T02:08:41.743Z,72.90
2018-01-15T02:11:15.565Z,73.00
2018-01-15T02:13:49.361Z,72.90
2018-01-15T02:16:23.141Z,72.90
2018-01-15T02:18:57.928Z,72.80
2018-01-15T02:21:31.841Z,72.60
2018-01-15T02:24:05.686Z,72.30
2018-01-15T02:26:39.709Z,72.30
2018-01-15T02:29:13.417Z,72.10
2018-01-15T02:31:47.361Z,72.20
2018-01-15T02:34:21.195Z,72.30
2018-01-15T02:36:54.974Z,72.20
2018-01-15T02:39:29.049Z,72.80
2018-01-15T02:42:02.713Z,72.40
2018-01-15T02:44:36.658Z,72.40
2018-01-15T02:47:10.755Z,72.40
2018-01-15T02:49:45.486Z,73.00
2018-01-15T02:52:19.348Z,72.90
2018-01-15T02:54:53.242Z,73.10
2018-01-15T02:57:27.792Z,72.80
2018-01-15T03:00:02.529Z,72.70
2018-01-15T03:02:37.292Z,72.50
2018-01-15T03:07:52.127Z,71.80
2018-01-15T03:10:26.589Z,71.80
2018-01-15T03:13:00.310Z,71.80
2018-01-15T03:15:33.970Z,71.50
2018-01-15T03:18:07.703Z,71.50
2018-01-15T03:20:41.330Z,71.40
2018-01-15T03:23:14.988Z,71.40
2018-01-15T03:25:49.645Z,71.90
2018-01-15T03:28:23.706Z,71.50
2018-01-15T03:30:58.189Z,71.30
2018-01-15T03:33:32.125Z,71.40
2018-01-15T03:38:41.533Z,71.80
2018-01-15T03:41:15.571Z,71.90
2018-01-15T03:43:49.534Z,71.60
2018-01-15T03:46:23.312Z,71.40
2018-01-15T03:48:57.213Z,71.50
2018-01-15T03:51:31.037Z,71.50
2018-01-15T03:54:04.744Z,71.50
2018-01-15T03:56:38.652Z,71.40
2018-01-15T03:59:12.428Z,71.50
2018-01-15T04:01:46.228Z,71.50
2018-01-15T04:04:20.746Z,72.20
2018-01-15T04:06:55.681Z,71.60
2018-01-15T04:09:29.909Z,71.60
2018-01-15T04:12:04.389Z,71.80
2018-01-15T04:14:38.118Z,71.90
2018-01-15T04:17:11.752Z,71.80
2018-01-15T04:19:46.139Z,71.80
2018-01-15T04:22:20.177Z,71.80
2018-01-15T04:24:53.952Z,71.90
2018-01-15T04:27:27.693Z,75.30
2018-01-15T04:30:02.276Z,71.90
2018-01-15T04:32:37.387Z,71.70
2018-01-15T04:35:11.013Z,71.90
2018-01-15T04:37:44.952Z,72.00
2018-01-15T04:40:18.832Z,71.90
2018-01-15T04:42:52.454Z,72.20
2018-01-15T04:45:26.978Z,72.80
2018-01-15T04:48:00.882Z,72.80
2018-01-15T04:50:34.916Z,72.80
2018-01-15T04:53:08.626Z,72.40
2018-01-15T04:55:42.428Z,73.00
2018-01-15T04:58:16.107Z,72.50
2018-01-15T05:00:49.970Z,72.40
2018-01-15T05:03:24.454Z,72.80
2018-01-15T05:05:59.218Z,72.30
2018-01-15T05:08:33.140Z,72.30
2018-01-15T05:11:07.011Z,72.30
2018-01-15T05:13:40.987Z,72.20
2018-01-15T05:16:15.135Z,72.20
2018-01-15T05:18:49.791Z,72.00
2018-01-15T05:21:23.483Z,72.10
2018-01-15T05:23:57.357Z,71.90
2018-01-15T05:26:30.993Z,71.90
2018-01-15T05:29:04.770Z,72.40
2018-01-15T05:31:38.395Z,71.90
2018-01-15T05:34:12.094Z,72.30
2018-01-15T05:36:46.478Z,72.20
2018-01-15T05:39:21.215Z,72.10
2018-01-15T05:41:55.291Z,71.90
2018-01-15T05:44:29.171Z,71.90
2018-01-15T05:47:02.862Z,72.10
2018-01-15T05:49:36.851Z,72.10
2018-01-15T05:52:11.362Z,72.80
2018-01-15T05:54:45.454Z,72.20
2018-01-15T05:57:19.181Z,72.20
2018-01-15T05:59:52.927Z,72.30
2018-01-15T06:02:26.917Z,72.60
2018-01-15T06:05:00.723Z,72.50
2018-01-15T06:07:34.599Z,72.50
2018-01-15T06:10:08.214Z,72.70
2018-01-15T06:12:42.316Z,72.60
2018-01-15T06:15:16.157Z,73.30
2018-01-15T06:17:50.727Z,73.20
2018-01-15T06:20:24.778Z,72.60
2018-01-15T06:22:59.569Z,72.60
2018-01-15T06:25:33.262Z,72.70
2018-01-15T06:28:07.185Z,72.70
2018-01-15T06:30:40.993Z,72.80
2018-01-15T06:33:14.897Z,72.70
2018-01-15T06:35:49.741Z,73.50
2018-01-15T06:38:23.852Z,73.50
2018-01-15T06:40:57.502Z,73.30
2018-01-15T06:43:31.255Z,73.30
2018-01-15T06:46:05.017Z,73.40
2018-01-15T06:48:39.666Z,73.90
2018-01-15T06:51:14.432Z,73.90
2018-01-15T06:53:48.285Z,73.40
2018-01-15T06:56:22.044Z,74.00
2018-01-15T06:58:56.436Z,73.60
2018-01-15T07:01:31.444Z,74.10
2018-01-15T07:04:05.538Z,73.60
2018-01-15T07:06:40.643Z,73.40
2018-01-15T07:11:49.885Z,73.30
2018-01-15T07:14:24.595Z,73.90
2018-01-15T07:16:58.530Z,73.20
2018-01-15T07:19:32.161Z,73.20
2018-01-15T07:22:05.861Z,72.90
2018-01-15T07:24:39.583Z,72.50
2018-01-15T07:27:14.833Z,72.90
2018-01-15T07:29:49.776Z,72.70
2018-01-15T07:32:24.474Z,73.00
2018-01-15T07:34:58.541Z,72.00
2018-01-15T07:37:32.801Z,72.10
2018-01-15T07:40:08.218Z,71.90
2018-01-15T07:42:42.788Z,71.90
2018-01-15T07:45:17.605Z,72.10
2018-01-15T07:47:51.750Z,71.60
2018-01-15T07:50:26.053Z,71.90
2018-01-15T07:55:35.605Z,71.10
2018-01-15T07:58:09.580Z,71.00
2018-01-15T08:00:43.921Z,71.10
2018-01-15T08:03:19.234Z,70.90
2018-01-15T08:05:53.452Z,70.90
2018-01-15T08:08:28.226Z,71.60
2018-01-15T08:11:02.983Z,70.80
2018-01-15T08:13:37.527Z,70.70
2018-01-15T08:16:12.012Z,70.80
2018-01-15T08:18:46.501Z,70.80
2018-01-15T08:21:20.656Z,70.60
2018-01-15T08:23:55.030Z,70.90
2018-01-15T08:26:28.930Z,70.50
2018-01-15T08:29:02.558Z,74.40
2018-01-15T08:31:36.489Z,70.60
2018-01-15T08:34:10.271Z,70.60
2018-01-15T08:36:44.696Z,71.00
2018-01-15T08:39:18.740Z,70.50
2018-01-15T08:41:53.333Z,70.30
2018-01-15T08:44:27.383Z,69.00
2018-01-15T08:47:01.866Z,68.00
2018-01-15T08:49:36.041Z,67.40
2018-01-15T08:52:09.696Z,67.70
2018-01-15T08:54:44.015Z,67.30
2018-01-15T08:57:18.489Z,67.10
2018-01-15T08:59:52.361Z,66.10
2018-01-15T09:02:26.956Z,65.90
2018-01-15T09:05:01.088Z,65.80
2018-01-15T09:07:35.669Z,67.30
2018-01-15T09:10:09.725Z,66.50
2018-01-15T09:12:43.520Z,66.70
2018-01-15T09:15:18.145Z,66.10
2018-01-15T09:17:52.196Z,65.80
2018-01-15T09:20:25.921Z,65.20
2018-01-15T09:23:00.307Z,62.90
2018-01-15T09:25:35.928Z,61.90
2018-01-15T09:28:11.371Z,61.60
2018-01-15T09:30:45.282Z,61.90
2018-01-15T09:33:18.903Z,62.00
2018-01-15T09:35:53.255Z,62.30
2018-01-15T09:38:27.798Z,62.20
2018-01-15T09:41:01.932Z,62.40
2018-01-15T09:43:36.579Z,62.60
2018-01-15T09:46:10.236Z,63.30
2018-01-15T09:48:43.913Z,63.60
2018-01-15T09:51:18.890Z,64.00
2018-01-15T09:53:53.344Z,64.10
2018-01-15T09:56:27.770Z,64.10
2018-01-15T09:59:01.849Z,64.40
2018-01-15T10:01:35.540Z,64.30
2018-01-15T10:04:09.256Z,64.40
2018-01-15T10:06:43.211Z,64.20
2018-01-15T10:09:17.852Z,64.50
2018-01-15T10:11:53.117Z,63.10
2018-01-15T10:14:26.936Z,62.80
2018-01-15T10:17:00.660Z,62.60
2018-01-15T10:19:34.463Z,63.00
2018-01-15T10:22:08.237Z,62.90
2018-01-15T10:24:42.800Z,63.30
2018-01-15T10:27:17.296Z,64.10
2018-01-15T10:29:51.867Z,64.70
2018-01-15T10:32:26.957Z,65.70
2018-01-15T10:35:00.903Z,65.50
2018-01-15T10:37:34.720Z,65.70
2018-01-15T10:40:08.528Z,66.20
2018-01-15T10:42:43.115Z,66.60
2018-01-15T10:45:16.981Z,66.80
2018-01-15T10:47:50.684Z,67.10
2018-01-15T10:50:24.725Z,67.30
2018-01-15T10:52:59.115Z,67.50
2018-01-15T10:55:32.983Z,67.60
2018-01-15T10:58:07.535Z,67.80
2018-01-15T11:00:48.029Z,68.40
2018-01-15T11:03:23.056Z,68.20
2018-01-15T11:05:56.977Z,67.70
2018-01-15T11:08:30.687Z,67.80
2018-01-15T11:11:04.783Z,68.00
2018-01-15T11:13:39.234Z,67.90
2018-01-15T11:16:13.312Z,67.60
2018-01-15T11:18:48.187Z,67.70
2018-01-15T11:21:23.579Z,68.10
2018-01-15T11:23:57.634Z,67.70
2018-01-15T11:26:32.078Z,67.60
2018-01-15T11:29:07.228Z,68.20
2018-01-15T11:31:42.384Z,67.90
2018-01-15T11:34:16.496Z,67.40
2018-01-15T11:36:50.588Z,67.30
2018-01-15T11:39:25.204Z,67.80
2018-01-15T11:42:00.507Z,67.20
2018-01-15T11:44:34.295Z,67.10
2018-01-15T11:47:09.008Z,67.20
2018-01-15T11:49:43.125Z,66.70
2018-01-15T11:52:17.063Z,66.50
2018-01-15T11:54:52.004Z,66.60
2018-01-15T11:57:26.510Z,66.40
2018-01-15T12:00:00.316Z,66.20
2018-01-15T12:02:34.061Z,66.40
2018-01-15T12:05:08.600Z,67.70
2018-01-15T12:07:42.958Z,66.50
2018-01-15T12:10:18.264Z,66.70
2018-01-15T12:12:52.854Z,66.60
2018-01-15T12:15:26.907Z,66.40
2018-01-15T12:18:00.646Z,66.50
2018-01-15T12:20:35.670Z,66.50
2018-01-15T12:23:09.993Z,66.70
2018-01-15T12:25:45.129Z,67.10
2018-01-15T12:28:18.990Z,67.30
2018-01-15T12:30:52.935Z,67.50
2018-01-15T12:33:27.214Z,67.20
2018-01-15T12:36:02.497Z,67.30
2018-01-15T12:38:37.505Z,67.40
2018-01-15T12:41:11.776Z,67.50
2018-01-15T12:43:47.185Z,68.30
2018-01-15T12:46:22.454Z,67.70
2018-01-15T12:48:56.545Z,67.90
2018-01-15T12:54:06.831Z,68.00
2018-01-15T12:56:40.572Z,68.20
2018-01-15T12:59:14.216Z,68.40
2018-01-15T13:01:48.000Z,68.50
2018-01-15T13:04:21.853Z,68.60
2018-01-15T13:06:56.109Z,68.70
2018-01-15T13:09:30.721Z,68.60
2018-01-15T13:12:04.609Z,68.70
2018-01-15T13:17:14.057Z,68.80
2018-01-15T13:19:48.802Z,69.00
2018-01-15T13:22:33.501Z,69.10
2018-01-15T13:25:08.871Z,69.10
2018-01-15T13:27:46.193Z,69.30
2018-01-15T13:30:19.908Z,69.50
2018-01-15T13:32:54.235Z,70.00
2018-01-15T13:35:32.236Z,70.20
2018-01-15T13:38:09.127Z,70.30
2018-01-15T13:40:51.209Z,70.50
2018-01-15T13:43:29.506Z,70.60
2018-01-15T13:46:06.532Z,70.90
2018-01-15T13:48:40.206Z,70.80
2018-01-15T13:51:14.617Z,70.80
2018-01-15T13:54:01.498Z,70.90
2018-01-15T13:56:39.800Z,71.00
2018-01-15T13:59:17.537Z,71.20
2018-01-15T14:04:38.182Z,71.40
2018-01-15T14:07:19.220Z,71.40
2018-01-15T14:10:04.255Z,71.30
2018-01-15T14:12:41.141Z,71.40
2018-01-15T14:15:16.966Z,71.60
2018-01-15T14:17:54.796Z,71.70
2018-01-15T14:20:30.134Z,72.30
2018-01-15T14:23:07.180Z,72.30
2018-01-15T14:28:17.477Z,71.90
2018-01-15T14:30:51.293Z,71.90
2018-01-15T14:33:27.817Z,72.80
2018-01-15T14:36:10.565Z,72.30
2018-01-15T14:38:47.103Z,72.80
2018-01-15T14:41:21.969Z,72.30
2018-01-15T14:44:04.093Z,72.50
2018-01-15T14:46:39.204Z,72.30
2018-01-15T14:51:53.689Z,72.20
2018-01-15T14:57:15.338Z,72.50
2018-01-15T14:59:50.865Z,72.40
2018-01-15T15:02:25.475Z,72.60
2018-01-15T15:04:59.928Z,72.70
2018-01-15T15:07:34.388Z,72.80
2018-01-15T15:10:14.925Z,72.80
2018-01-15T15:12:49.407Z,72.80
2018-01-15T15:15:40.508Z,73.20
2018-01-15T15:18:22.001Z,73.10
2018-01-15T15:20:56.724Z,73.60
2018-01-15T15:23:37.637Z,73.20
2018-01-15T15:26:12.184Z,73.30
2018-01-15T15:28:50.354Z,73.20
2018-01-15T15:31:25.156Z,73.80
2018-01-15T15:34:00.733Z,73.70
2018-01-15T15:36:35.035Z,73.70
2018-01-15T15:39:08.736Z,73.80
2018-01-15T15:41:43.669Z,73.80
2018-01-15T15:44:18.093Z,73.90
2018-01-15T15:46:52.273Z,73.90
2018-01-15T15:49:26.627Z,73.80
2018-01-15T15:52:01.156Z,74.30
2018-01-15T15:54:35.092Z,75.40
2018-01-15T15:57:10.731Z,74.40
2018-01-15T15:59:44.721Z,73.80
2018-01-15T16:02:18.799Z,73.90
2018-01-15T16:04:53.135Z,73.90
2018-01-15T16:07:27.738Z,74.40
2018-01-15T16:10:01.801Z,73.80
2018-01-15T16:12:35.676Z,73.80
2018-01-15T16:15:09.429Z,73.70
2018-01-15T16:17:43.219Z,73.60
2018-01-15T16:20:17.859Z,74.20
2018-01-15T16:22:58.275Z,73.70
2018-01-15T16:25:37.190Z,74.10
2018-01-15T16:28:12.233Z,74.20
2018-01-15T16:30:47.432Z,75.00
2018-01-15T16:33:22.994Z,75.40
2018-01-15T16:35:58.249Z,74.90
2018-01-15T16:38:32.071Z,75.40
2018-01-15T16:41:06.494Z,75.60
2018-01-15T16:43:40.592Z,75.40
2018-01-15T16:46:14.280Z,75.60
2018-01-15T16:48:48.805Z,76.30
2018-01-15T16:51:22.764Z,75.80
2018-01-15T16:53:56.521Z,76.00
2018-01-15T16:56:30.958Z,75.90
2018-01-15T16:59:05.049Z,76.00
2018-01-15T17:01:39.173Z,76.00
2018-01-15T17:04:13.728Z,76.10
2018-01-15T17:06:50.555Z,76.20
2018-01-15T17:09:26.013Z,76.80
2018-01-15T17:11:59.974Z,76.30
2018-01-15T17:14:34.405Z,76.80
2018-01-15T17:17:08.580Z,76.40
2018-01-15T17:19:42.837Z,76.40
2018-01-15T17:22:19.069Z,76.90
2018-01-15T17:24:55.041Z,76.10
2018-01-15T17:27:30.275Z,76.10
2018-01-15T17:30:04.941Z,76.10
2018-01-15T17:32:41.304Z,75.60
2018-01-15T17:35:15.809Z,75.80
2018-01-15T17:40:27.034Z,75.70
2018-01-15T17:43:01.283Z,75.40
2018-01-15T17:45:36.299Z,75.80
2018-01-15T17:48:10.874Z,76.30
2018-01-15T17:50:45.040Z,75.90
2018-01-15T17:53:20.891Z,76.10
2018-01-15T17:55:54.549Z,76.40
2018-01-15T17:58:28.316Z,78.00
2018-01-15T18:01:02.417Z,81.00
2018-01-15T18:03:37.456Z,80.00
2018-01-15T18:06:13.821Z,80.90
2018-01-15T18:08:47.928Z,80.30
2018-01-15T18:11:22.297Z,80.60
2018-01-15T18:13:57.085Z,80.40
2018-01-15T18:16:31.238Z,80.40
2018-01-15T18:19:05.908Z,80.30
2018-01-15T18:21:40.404Z,80.70
2018-01-15T18:24:14.816Z,80.40
2018-01-15T18:26:48.729Z,79.60
2018-01-15T18:29:22.896Z,79.30
2018-01-15T18:31:57.266Z,79.30
2018-01-15T18:34:32.096Z,79.80
2018-01-15T18:37:06.118Z,78.90
2018-01-15T18:39:40.744Z,78.90
2018-01-15T18:42:14.800Z,78.70
2018-01-15T18:44:48.515Z,78.90
2018-01-15T18:47:23.093Z,79.20
2018-01-15T18:49:58.392Z,78.90
2018-01-15T18:52:32.648Z,78.40
2018-01-15T18:55:06.348Z,78.50
2018-01-15T18:57:40.013Z,78.50
2018-01-15T19:00:13.775Z,78.40
2018-01-15T19:02:49.124Z,78.50
2018-01-15T19:05:24.091Z,78.60
2018-01-15T19:07:58.745Z,79.10
2018-01-15T19:10:33.029Z,79.70
2018-01-15T19:13:07.032Z,80.40
2018-01-15T19:15:42.332Z,80.90
2018-01-15T19:18:16.071Z,81.50
2018-01-15T19:20:49.736Z,82.30
2018-01-15T19:23:24.040Z,82.80
2018-01-15T19:25:59.092Z,83.80
2018-01-15T19:28:33.226Z,83.20
2018-01-15T19:31:07.253Z,83.20
2018-01-15T19:33:40.892Z,83.10
2018-01-15T19:36:23.463Z,83.10
2018-01-15T19:38:59.422Z,83.70
2018-01-15T19:41:36.782Z,83.90
2018-01-15T19:47:10.468Z,84.10
2018-01-15T19:49:51.653Z,84.70
2018-01-15T20:06:31.457Z,88.40
2018-01-15T20:09:11.177Z,86.50
2018-01-15T20:11:45.227Z,87.30
2018-01-15T20:14:19.866Z,87.60
2018-01-15T20:16:55.260Z,88.10
2018-01-15T20:19:29.543Z,88.70
2018-01-15T20:22:05.235Z,88.50
2018-01-15T20:24:38.884Z,88.50
2018-01-15T20:27:12.688Z,88.50
2018-01-15T20:29:47.293Z,88.00
2018-01-15T20:32:21.100Z,88.10
2018-01-15T20:34:55.625Z,88.20
2018-01-15T20:37:30.413Z,88.20
2018-01-15T20:40:05.054Z,87.80
2018-01-15T20:42:39.704Z,89.00
2018-01-15T20:45:13.653Z,89.00
2018-01-15T20:47:47.367Z,89.80
2018-01-15T20:50:32.712Z,90.10
2018-01-15T20:53:07.850Z,90.20
2018-01-15T20:55:45.192Z,90.00
2018-01-15T20:58:28.769Z,89.70
2018-01-15T21:03:42.525Z,89.00
2018-01-15T21:06:16.394Z,88.50
2018-01-15T21:08:50.159Z,87.90
2018-01-15T21:11:23.977Z,87.50
2018-01-15T21:13:57.773Z,87.70
2018-01-15T21:16:31.381Z,87.20
2018-01-15T21:19:05.064Z,86.60
2018-01-15T21:21:38.917Z,87.10
2018-01-15T21:24:13.780Z,87.80
2018-01-15T21:26:51.198Z,87.50
2018-01-15T21:29:25.070Z,87.50
2018-01-15T21:32:01.513Z,87.50
2018-01-15T21:34:36.390Z,87.70
2018-01-15T21:39:51.548Z,87.30
2018-01-15T21:42:25.491Z,86.90
2018-01-15T21:44:59.241Z,86.50
2018-01-15T21:47:33.779Z,84.80
2018-01-15T21:50:07.564Z,84.50
2018-01-15T21:52:42.208Z,83.20
2018-01-15T21:55:16.867Z,83.40
2018-01-15T21:57:51.590Z,82.80
2018-01-15T22:00:25.557Z,82.80
2018-01-15T22:02:59.234Z,82.40
2018-01-15T22:05:33.804Z,82.10
2018-01-15T22:08:07.908Z,81.90
2018-01-15T22:10:42.517Z,82.20
2018-01-15T22:13:16.308Z,82.10
2018-01-15T22:15:50.040Z,82.40
2018-01-15T22:18:23.978Z,82.20
2018-01-15T22:20:58.743Z,81.90
2018-01-15T22:23:33.329Z,82.10
2018-01-15T22:26:07.530Z,82.10
2018-01-15T22:28:41.981Z,82.40
2018-01-15T22:31:16.081Z,82.30
2018-01-15T22:33:50.698Z,82.40
2018-01-15T22:36:24.918Z,82.40
2018-01-15T22:38:58.850Z,82.70
2018-01-15T22:41:32.511Z,82.60
2018-01-15T22:44:06.156Z,82.50
2018-01-15T22:46:40.632Z,83.70
2018-01-15T22:49:14.596Z,83.70
2018-01-15T22:51:48.324Z,83.80
2018-01-15T22:54:22.008Z,83.60
2018-01-15T22:56:56.613Z,83.10
2018-01-15T22:59:30.587Z,82.80
2018-01-15T23:02:04.366Z,82.90
2018-01-15T23:04:38.072Z,82.80
2018-01-15T23:07:11.768Z,83.20
2018-01-15T23:09:45.540Z,83.00
2018-01-15T23:12:19.177Z,82.50
2018-01-15T23:14:53.054Z,82.90
2018-01-15T23:17:26.753Z,81.90
2018-01-15T23:20:00.557Z,81.90
2018-01-15T23:22:34.464Z,81.90
2018-01-15T23:25:08.431Z,81.60
2018-01-15T23:27:42.250Z,81.90
2018-01-15T23:30:16.791Z,81.50
2018-01-15T23:32:51.727Z,80.60
2018-01-15T23:35:25.467Z,81.30
2018-01-15T23:37:59.235Z,81.50
2018-01-15T23:40:33.047Z,81.40
2018-01-15T23:43:07.619Z,81.60
2018-01-15T23:45:41.242Z,81.70
2018-01-15T23:48:15.163Z,82.30
2018-01-15T23:50:49.749Z,81.40
2018-01-15T23:53:23.875Z,81.00
2018-01-15T23:55:57.641Z,81.50
2018-01-15T23:58:32.136Z,81.60
